Terminal Aerodrome Forecast
Issued by NWS Mt. Holly, NJ

Home | Current Version | Previous Version | Text Only | Print | Product List | Glossary On
Versions: 1 2 3 4 5 6 7 8 9 10 11 12 13 14 15 16 17 18 19 20 21 22 23 24 25 26 27 28
218
FTUS41 KPHI 302340 AAB
TAFPHL
TAF AMD
KPHL 302340Z 0100/0206 08009KT P6SM OVC015
     FM010600 09004KT 3SM BR OVC007
     FM010800 VRB03KT 1/2SM FG OVC005
     FM011200 19006KT 5SM BR BKN020 OVC250
     FM011500 23012G20KT P6SM BKN025
     FM011700 21016G25KT P6SM BKN035=

USA.gov is the U.S. government's official web portal to all federal, state and local government web resources and services.